sensor_id;sensor_type;location;lat;lon;timestamp;P1;durP1;ratioP1;P2;durP2;ratioP2
36787;SDS011;22738;45.560;9.434;2023-02-28T00:00:15;13.40;;;5.73;;
36787;SDS011;22738;45.560;9.434;2023-02-28T00:06:56;13.65;;;5.68;;
36787;SDS011;22738;45.560;9.434;2023-02-28T00:13:38;12.65;;;5.38;;
36787;SDS011;22738;45.560;9.434;2023-02-28T00:20:23;11.50;;;5.65;;
36787;SDS011;22738;45.560;9.434;2023-02-28T00:27:06;10.32;;;5.30;;
36787;SDS011;22738;45.560;9.434;2023-02-28T00:33:47;12.82;;;5.57;;
36787;SDS011;22738;45.560;9.434;2023-02-28T00:40:29;12.10;;;5.25;;
36787;SDS011;22738;45.560;9.434;2023-02-28T00:47:10;14.38;;;5.47;;
36787;SDS011;22738;45.560;9.434;2023-02-28T00:53:51;12.80;;;5.18;;
36787;SDS011;22738;45.560;9.434;2023-02-28T01:00:32;15.00;;;5.43;;
36787;SDS011;22738;45.560;9.434;2023-02-28T01:07:13;13.50;;;6.28;;
36787;SDS011;22738;45.560;9.434;2023-02-28T01:13:55;16.55;;;7.10;;
36787;SDS011;22738;45.560;9.434;2023-02-28T01:20:37;17.40;;;5.95;;
36787;SDS011;22738;45.560;9.434;2023-02-28T01:27:18;14.30;;;5.85;;
36787;SDS011;22738;45.560;9.434;2023-02-28T01:33:59;11.02;;;4.82;;
36787;SDS011;22738;45.560;9.434;2023-02-28T01:40:43;14.93;;;7.05;;
36787;SDS011;22738;45.560;9.434;2023-02-28T01:47:29;12.52;;;5.80;;
36787;SDS011;22738;45.560;9.434;2023-02-28T01:54:15;14.55;;;5.65;;
36787;SDS011;22738;45.560;9.434;2023-02-28T02:01:01;13.30;;;6.65;;
36787;SDS011;22738;45.560;9.434;2023-02-28T02:07:44;12.55;;;6.57;;
36787;SDS011;22738;45.560;9.434;2023-02-28T02:14:35;16.33;;;6.97;;
36787;SDS011;22738;45.560;9.434;2023-02-28T02:42:29;13.13;;;6.40;;
36787;SDS011;22738;45.560;9.434;2023-02-28T02:49:27;16.70;;;5.50;;
36787;SDS011;22738;45.560;9.434;2023-02-28T02:56:11;12.15;;;6.03;;
36787;SDS011;22738;45.560;9.434;2023-02-28T03:02:54;18.27;;;6.82;;
36787;SDS011;22738;45.560;9.434;2023-02-28T03:09:37;12.30;;;6.40;;
36787;SDS011;22738;45.560;9.434;2023-02-28T03:23:21;15.52;;;6.53;;
36787;SDS011;22738;45.560;9.434;2023-02-28T03:37:16;13.00;;;6.07;;
36787;SDS011;22738;45.560;9.434;2023-02-28T03:44:06;14.70;;;6.88;;
36787;SDS011;22738;45.560;9.434;2023-02-28T03:50:56;11.32;;;5.80;;
36787;SDS011;22738;45.560;9.434;2023-02-28T03:57:55;10.98;;;5.45;;
36787;SDS011;22738;45.560;9.434;2023-02-28T04:04:42;10.70;;;5.93;;
36787;SDS011;22738;45.560;9.434;2023-02-28T04:18:20;15.38;;;6.43;;
36787;SDS011;22738;45.560;9.434;2023-02-28T04:25:01;10.88;;;5.85;;
36787;SDS011;22738;45.560;9.434;2023-02-28T04:31:43;15.63;;;6.28;;
36787;SDS011;22738;45.560;9.434;2023-02-28T04:38:24;15.13;;;6.30;;
36787;SDS011;22738;45.560;9.434;2023-02-28T04:45:05;13.43;;;5.82;;
36787;SDS011;22738;45.560;9.434;2023-02-28T04:51:46;12.65;;;7.13;;
36787;SDS011;22738;45.560;9.434;2023-02-28T04:58:29;18.23;;;6.57;;
36787;SDS011;22738;45.560;9.434;2023-02-28T05:05:11;12.20;;;6.93;;
36787;SDS011;22738;45.560;9.434;2023-02-28T05:11:58;14.32;;;6.97;;
36787;SDS011;22738;45.560;9.434;2023-02-28T05:18:39;15.45;;;6.80;;
36787;SDS011;22738;45.560;9.434;2023-02-28T05:25:20;16.77;;;6.60;;
36787;SDS011;22738;45.560;9.434;2023-02-28T05:32:04;17.10;;;7.38;;
36787;SDS011;22738;45.560;9.434;2023-02-28T05:38:46;21.30;;;8.27;;
36787;SDS011;22738;45.560;9.434;2023-02-28T05:45:28;17.92;;;8.02;;
36787;SDS011;22738;45.560;9.434;2023-02-28T05:52:09;16.63;;;7.60;;
36787;SDS011;22738;45.560;9.434;2023-02-28T05:58:51;18.23;;;8.05;;
36787;SDS011;22738;45.560;9.434;2023-02-28T06:05:32;19.45;;;9.30;;
36787;SDS011;22738;45.560;9.434;2023-02-28T06:12:13;23.70;;;10.45;;
36787;SDS011;22738;45.560;9.434;2023-02-28T06:18:56;20.50;;;8.68;;
36787;SDS011;22738;45.560;9.434;2023-02-28T06:25:38;19.90;;;9.13;;
36787;SDS011;22738;45.560;9.434;2023-02-28T06:32:19;20.42;;;9.07;;
36787;SDS011;22738;45.560;9.434;2023-02-28T06:39:00;20.05;;;8.38;;
36787;SDS011;22738;45.560;9.434;2023-02-28T06:45:42;21.90;;;9.45;;
36787;SDS011;22738;45.560;9.434;2023-02-28T06:52:24;18.50;;;9.02;;
36787;SDS011;22738;45.560;9.434;2023-02-28T06:59:06;19.17;;;9.15;;
36787;SDS011;22738;45.560;9.434;2023-02-28T07:05:47;22.83;;;8.80;;
36787;SDS011;22738;45.560;9.434;2023-02-28T07:12:28;19.17;;;9.43;;
36787;SDS011;22738;45.560;9.434;2023-02-28T07:19:09;21.33;;;9.52;;
36787;SDS011;22738;45.560;9.434;2023-02-28T07:25:50;22.63;;;10.32;;
36787;SDS011;22738;45.560;9.434;2023-02-28T07:32:34;22.63;;;10.10;;
36787;SDS011;22738;45.560;9.434;2023-02-28T07:39:18;20.58;;;9.40;;
36787;SDS011;22738;45.560;9.434;2023-02-28T07:46:03;18.42;;;8.52;;
36787;SDS011;22738;45.560;9.434;2023-02-28T07:52:46;19.38;;;8.98;;
36787;SDS011;22738;45.560;9.434;2023-02-28T07:59:27;17.30;;;8.73;;
36787;SDS011;22738;45.560;9.434;2023-02-28T08:06:14;20.60;;;8.15;;
36787;SDS011;22738;45.560;9.434;2023-02-28T08:12:58;18.60;;;8.98;;
36787;SDS011;22738;45.560;9.434;2023-02-28T08:19:39;16.98;;;8.50;;
36787;SDS011;22738;45.560;9.434;2023-02-28T08:26:20;21.60;;;9.00;;
36787;SDS011;22738;45.560;9.434;2023-02-28T08:33:01;19.38;;;9.50;;
36787;SDS011;22738;45.560;9.434;2023-02-28T08:39:42;22.10;;;9.65;;
36787;SDS011;22738;45.560;9.434;2023-02-28T08:46:23;21.08;;;10.48;;
36787;SDS011;22738;45.560;9.434;2023-02-28T08:53:05;22.40;;;10.38;;
36787;SDS011;22738;45.560;9.434;2023-02-28T08:59:47;25.60;;;10.60;;
36787;SDS011;22738;45.560;9.434;2023-02-28T09:06:28;20.55;;;11.27;;
36787;SDS011;22738;45.560;9.434;2023-02-28T09:13:09;19.73;;;9.43;;
36787;SDS011;22738;45.560;9.434;2023-02-28T09:19:50;21.27;;;10.07;;
36787;SDS011;22738;45.560;9.434;2023-02-28T09:26:31;21.88;;;10.00;;
36787;SDS011;22738;45.560;9.434;2023-02-28T09:33:15;18.05;;;9.52;;
36787;SDS011;22738;45.560;9.434;2023-02-28T09:39:57;16.92;;;8.88;;
36787;SDS011;22738;45.560;9.434;2023-02-28T09:46:42;18.10;;;7.55;;
36787;SDS011;22738;45.560;9.434;2023-02-28T09:53:29;15.77;;;7.75;;
36787;SDS011;22738;45.560;9.434;2023-02-28T10:00:21;17.00;;;8.90;;
36787;SDS011;22738;45.560;9.434;2023-02-28T10:07:21;19.58;;;8.80;;
36787;SDS011;22738;45.560;9.434;2023-02-28T10:14:28;20.02;;;10.00;;
36787;SDS011;22738;45.560;9.434;2023-02-28T10:21:14;19.60;;;8.80;;
36787;SDS011;22738;45.560;9.434;2023-02-28T10:28:11;14.82;;;7.93;;
36787;SDS011;22738;45.560;9.434;2023-02-28T10:34:59;18.33;;;9.02;;
36787;SDS011;22738;45.560;9.434;2023-02-28T10:41:50;15.90;;;7.95;;
36787;SDS011;22738;45.560;9.434;2023-02-28T10:48:32;17.25;;;8.13;;
36787;SDS011;22738;45.560;9.434;2023-02-28T10:55:23;20.17;;;10.00;;
36787;SDS011;22738;45.560;9.434;2023-02-28T11:09:22;16.95;;;9.30;;
36787;SDS011;22738;45.560;9.434;2023-02-28T11:16:06;19.75;;;9.65;;
36787;SDS011;22738;45.560;9.434;2023-02-28T11:22:49;19.63;;;10.50;;
36787;SDS011;22738;45.560;9.434;2023-02-28T11:29:32;17.58;;;9.70;;
36787;SDS011;22738;45.560;9.434;2023-02-28T11:36:19;26.17;;;10.82;;
36787;SDS011;22738;45.560;9.434;2023-02-28T11:43:06;20.08;;;10.07;;
36787;SDS011;22738;45.560;9.434;2023-02-28T11:57:00;27.30;;;12.48;;
36787;SDS011;22738;45.560;9.434;2023-02-28T12:04:12;24.85;;;11.73;;
36787;SDS011;22738;45.560;9.434;2023-02-28T12:32:06;21.30;;;11.60;;
36787;SDS011;22738;45.560;9.434;2023-02-28T12:39:11;23.67;;;12.13;;
36787;SDS011;22738;45.560;9.434;2023-02-28T12:45:56;23.73;;;12.18;;
36787;SDS011;22738;45.560;9.434;2023-02-28T12:52:56;24.50;;;12.70;;
36787;SDS011;22738;45.560;9.434;2023-02-28T12:59:45;29.13;;;13.63;;
36787;SDS011;22738;45.560;9.434;2023-02-28T13:13:47;22.15;;;11.85;;
36787;SDS011;22738;45.560;9.434;2023-02-28T13:20:31;22.65;;;11.57;;
36787;SDS011;22738;45.560;9.434;2023-02-28T13:40:37;20.40;;;11.35;;
36787;SDS011;22738;45.560;9.434;2023-02-28T13:47:22;21.00;;;10.20;;
36787;SDS011;22738;45.560;9.434;2023-02-28T13:54:07;26.05;;;12.55;;
36787;SDS011;22738;45.560;9.434;2023-02-28T14:07:59;21.98;;;11.05;;
36787;SDS011;22738;45.560;9.434;2023-02-28T14:21:29;19.98;;;11.35;;
36787;SDS011;22738;45.560;9.434;2023-02-28T14:35:26;23.08;;;12.35;;
36787;SDS011;22738;45.560;9.434;2023-02-28T14:49:34;22.23;;;11.68;;
36787;SDS011;22738;45.560;9.434;2023-02-28T14:56:19;23.08;;;11.85;;
36787;SDS011;22738;45.560;9.434;2023-02-28T15:03:23;21.70;;;11.10;;
36787;SDS011;22738;45.560;9.434;2023-02-28T15:10:16;22.40;;;12.20;;
36787;SDS011;22738;45.560;9.434;2023-02-28T15:17:02;23.40;;;11.65;;
36787;SDS011;22738;45.560;9.434;2023-02-28T15:24:00;25.40;;;12.45;;
36787;SDS011;22738;45.560;9.434;2023-02-28T15:31:45;19.98;;;10.70;;
36787;SDS011;22738;45.560;9.434;2023-02-28T15:44:55;22.95;;;11.65;;
36787;SDS011;22738;45.560;9.434;2023-02-28T15:51:39;20.60;;;11.23;;
36787;SDS011;22738;45.560;9.434;2023-02-28T15:58:20;21.42;;;11.32;;
36787;SDS011;22738;45.560;9.434;2023-02-28T16:18:29;20.50;;;9.90;;
36787;SDS011;22738;45.560;9.434;2023-02-28T16:25:14;22.95;;;11.95;;
36787;SDS011;22738;45.560;9.434;2023-02-28T16:31:56;22.90;;;11.55;;
36787;SDS011;22738;45.560;9.434;2023-02-28T16:38:37;21.90;;;12.25;;
36787;SDS011;22738;45.560;9.434;2023-02-28T16:45:22;23.92;;;12.50;;
36787;SDS011;22738;45.560;9.434;2023-02-28T16:52:05;21.65;;;11.02;;
36787;SDS011;22738;45.560;9.434;2023-02-28T16:58:46;24.98;;;11.93;;
36787;SDS011;22738;45.560;9.434;2023-02-28T17:05:31;25.48;;;11.90;;
36787;SDS011;22738;45.560;9.434;2023-02-28T17:12:18;24.13;;;11.90;;
36787;SDS011;22738;45.560;9.434;2023-02-28T17:19:00;24.67;;;11.23;;
36787;SDS011;22738;45.560;9.434;2023-02-28T17:25:43;24.13;;;11.15;;
36787;SDS011;22738;45.560;9.434;2023-02-28T17:32:33;27.85;;;13.48;;
36787;SDS011;22738;45.560;9.434;2023-02-28T17:39:15;25.33;;;12.38;;
36787;SDS011;22738;45.560;9.434;2023-02-28T17:46:04;32.00;;;14.48;;
36787;SDS011;22738;45.560;9.434;2023-02-28T17:52:47;27.17;;;13.68;;
36787;SDS011;22738;45.560;9.434;2023-02-28T17:59:30;37.28;;;16.98;;
36787;SDS011;22738;45.560;9.434;2023-02-28T18:13:26;30.63;;;14.30;;
36787;SDS011;22738;45.560;9.434;2023-02-28T18:20:09;30.55;;;13.52;;
36787;SDS011;22738;45.560;9.434;2023-02-28T18:26:52;31.67;;;14.32;;
36787;SDS011;22738;45.560;9.434;2023-02-28T18:33:33;32.93;;;15.10;;
36787;SDS011;22738;45.560;9.434;2023-02-28T18:40:14;32.13;;;14.88;;
36787;SDS011;22738;45.560;9.434;2023-02-28T18:46:56;41.15;;;18.90;;
36787;SDS011;22738;45.560;9.434;2023-02-28T18:53:37;38.17;;;16.38;;
36787;SDS011;22738;45.560;9.434;2023-02-28T19:00:20;30.98;;;15.10;;
36787;SDS011;22738;45.560;9.434;2023-02-28T19:07:02;26.73;;;13.27;;
36787;SDS011;22738;45.560;9.434;2023-02-28T19:13:43;31.80;;;15.52;;
36787;SDS011;22738;45.560;9.434;2023-02-28T19:20:25;39.22;;;16.33;;
36787;SDS011;22738;45.560;9.434;2023-02-28T19:27:06;33.25;;;15.88;;
36787;SDS011;22738;45.560;9.434;2023-02-28T19:33:47;37.92;;;17.40;;
36787;SDS011;22738;45.560;9.434;2023-02-28T19:40:28;39.78;;;20.02;;
36787;SDS011;22738;45.560;9.434;2023-02-28T19:47:09;36.03;;;18.20;;
36787;SDS011;22738;45.560;9.434;2023-02-28T19:53:51;40.30;;;18.60;;
36787;SDS011;22738;45.560;9.434;2023-02-28T20:00:32;35.50;;;17.30;;
36787;SDS011;22738;45.560;9.434;2023-02-28T20:07:13;37.78;;;16.63;;
36787;SDS011;22738;45.560;9.434;2023-02-28T20:13:54;33.83;;;15.15;;
36787;SDS011;22738;45.560;9.434;2023-02-28T20:20:40;38.72;;;16.45;;
36787;SDS011;22738;45.560;9.434;2023-02-28T20:27:21;35.95;;;16.52;;
36787;SDS011;22738;45.560;9.434;2023-02-28T20:34:03;35.53;;;17.05;;
36787;SDS011;22738;45.560;9.434;2023-02-28T20:40:44;34.13;;;15.35;;
36787;SDS011;22738;45.560;9.434;2023-02-28T20:47:25;38.83;;;16.75;;
36787;SDS011;22738;45.560;9.434;2023-02-28T20:54:07;32.72;;;15.65;;
36787;SDS011;22738;45.560;9.434;2023-02-28T21:00:49;38.27;;;16.60;;
36787;SDS011;22738;45.560;9.434;2023-02-28T21:07:30;40.63;;;17.80;;
36787;SDS011;22738;45.560;9.434;2023-02-28T21:14:15;41.33;;;18.23;;
36787;SDS011;22738;45.560;9.434;2023-02-28T21:21:04;37.47;;;16.70;;
36787;SDS011;22738;45.560;9.434;2023-02-28T21:27:47;37.45;;;17.65;;
36787;SDS011;22738;45.560;9.434;2023-02-28T21:34:28;40.20;;;18.25;;
36787;SDS011;22738;45.560;9.434;2023-02-28T21:41:10;40.28;;;18.73;;
36787;SDS011;22738;45.560;9.434;2023-02-28T21:47:59;42.15;;;18.42;;
36787;SDS011;22738;45.560;9.434;2023-02-28T21:54:40;60.95;;;22.73;;
36787;SDS011;22738;45.560;9.434;2023-02-28T22:01:21;43.22;;;18.40;;
36787;SDS011;22738;45.560;9.434;2023-02-28T22:08:02;43.00;;;20.15;;
36787;SDS011;22738;45.560;9.434;2023-02-28T22:14:43;41.60;;;18.30;;
36787;SDS011;22738;45.560;9.434;2023-02-28T22:21:25;44.80;;;21.50;;
36787;SDS011;22738;45.560;9.434;2023-02-28T22:28:06;45.20;;;21.23;;
36787;SDS011;22738;45.560;9.434;2023-02-28T22:34:51;52.80;;;22.25;;
36787;SDS011;22738;45.560;9.434;2023-02-28T22:41:32;44.05;;;19.95;;
36787;SDS011;22738;45.560;9.434;2023-02-28T22:48:13;43.03;;;19.20;;
36787;SDS011;22738;45.560;9.434;2023-02-28T22:54:54;40.20;;;17.63;;
36787;SDS011;22738;45.560;9.434;2023-02-28T23:01:35;41.83;;;19.65;;
36787;SDS011;22738;45.560;9.434;2023-02-28T23:08:16;37.85;;;18.02;;
36787;SDS011;22738;45.560;9.434;2023-02-28T23:15:03;43.42;;;19.63;;
36787;SDS011;22738;45.560;9.434;2023-02-28T23:21:44;43.50;;;21.15;;
36787;SDS011;22738;45.560;9.434;2023-02-28T23:28:26;40.05;;;19.42;;
36787;SDS011;22738;45.560;9.434;2023-02-28T23:35:07;38.10;;;17.92;;
36787;SDS011;22738;45.560;9.434;2023-02-28T23:41:49;50.17;;;21.17;;
36787;SDS011;22738;45.560;9.434;2023-02-28T23:48:32;48.30;;;20.57;;
36787;SDS011;22738;45.560;9.434;2023-02-28T23:55:13;40.35;;;19.38;;
